Time;durP1;ratioP1;P1;durP2;ratioP2;P2;SDS_P1;SDS_P2;PMS_P1;PMS_P2;Temp;Humidity;BMP_temperature;BMP_pressure;BME280_temperature;BME280_humidity;BME280_pressure;Samples;Min_cycle;Max_cycle;Signal;HPM_P1;HPM_P2
2021/05/09 00:01:25;;;;;;;2.22;2.03;;;12.20;99.90;;;;;;4973275;28;20206;-41
2021/05/09 00:03:53;;;;;;;2.65;2.10;;;12.30;99.90;;;;;;4974008;28;20198;-42
2021/05/09 00:06:20;;;;;;;2.38;2.10;;;12.40;99.90;;;;;;4974115;28;20217;-42
2021/05/09 00:08:47;;;;;;;4.10;2.20;;;12.50;99.90;;;;;;4961675;28;20227;-41
2021/05/09 00:11:14;;;;;;;2.50;2.05;;;12.50;99.90;;;;;;4962585;28;20212;-43
2021/05/09 00:13:41;;;;;;;2.88;2.05;;;12.50;99.90;;;;;;4956365;28;20252;-44
2021/05/09 00:16:08;;;;;;;2.00;1.55;;;12.60;99.90;;;;;;4960867;28;20221;-41
2021/05/09 00:18:35;;;;;;;1.90;1.80;;;12.80;99.90;;;;;;4974319;28;20597;-42
2021/05/09 00:21:02;;;;;;;3.70;2.47;;;13.00;99.90;;;;;;4972089;28;20245;-41
2021/05/09 00:23:28;;;;;;;1.80;1.70;;;13.10;99.90;;;;;;4965213;28;20197;-41
2021/05/09 00:25:56;;;;;;;2.33;2.13;;;13.10;99.90;;;;;;4967315;28;20215;-44
2021/05/09 00:28:22;;;;;;;2.10;1.90;;;13.20;99.90;;;;;;4970853;28;20597;-41
2021/05/09 00:30:49;;;;;;;2.85;2.03;;;13.30;99.90;;;;;;4969133;28;20207;-42
2021/05/09 00:33:17;;;;;;;2.25;2.15;;;13.30;99.90;;;;;;4967060;28;20714;-44
2021/05/09 00:35:44;;;;;;;1.90;1.67;;;13.40;99.90;;;;;;4972996;28;20586;-41
2021/05/09 00:38:13;;;;;;;2.17;1.60;;;13.40;99.90;;;;;;4974578;28;20233;-41
2021/05/09 00:40:40;;;;;;;1.90;1.70;;;13.40;99.90;;;;;;4965818;28;20685;-43
2021/05/09 00:43:14;;;;;;;1.88;1.77;;;13.40;99.90;;;;;;4961640;28;20593;-41
2021/05/09 00:45:42;;;;;;;3.40;1.67;;;13.40;99.90;;;;;;4960342;28;20226;-41
2021/05/09 00:48:10;;;;;;;2.40;1.80;;;13.40;99.90;;;;;;4962022;28;20206;-41
2021/05/09 00:50:38;;;;;;;1.52;1.40;;;13.40;99.90;;;;;;4959070;28;20743;-42
2021/05/09 00:53:07;;;;;;;2.17;1.70;;;13.40;99.90;;;;;;4974762;28;20285;-42
2021/05/09 00:55:36;;;;;;;1.83;1.70;;;13.30;99.90;;;;;;4973585;28;20222;-44
2021/05/09 00:58:03;;;;;;;2.50;2.30;;;13.30;99.90;;;;;;4973777;28;20245;-42
2021/05/09 01:00:31;;;;;;;2.95;1.77;;;13.10;99.90;;;;;;4971417;28;20201;-42
2021/05/09 01:03:02;;;;;;;2.03;1.70;;;12.90;99.90;;;;;;4973591;28;20286;-43
2021/05/09 01:05:31;;;;;;;3.40;2.35;;;12.70;99.90;;;;;;4973301;28;20202;-41
2021/05/09 01:07:57;;;;;;;1.52;1.42;;;12.50;99.90;;;;;;4972256;28;20252;-43
2021/05/09 01:10:24;;;;;;;1.92;1.83;;;12.30;99.90;;;;;;4955118;28;20218;-43
2021/05/09 01:12:51;;;;;;;2.35;2.15;;;12.20;99.90;;;;;;4973400;28;20186;-41
2021/05/09 01:15:18;;;;;;;2.13;1.85;;;12.10;99.90;;;;;;4972160;28;20289;-40
2021/05/09 01:17:46;;;;;;;2.15;2.05;;;12.00;99.90;;;;;;4972053;28;20198;-40
2021/05/09 01:20:36;;;;;;;2.55;1.60;;;11.90;99.90;;;;;;4972697;28;20240;-39
2021/05/09 01:23:04;;;;;;;3.53;2.15;;;11.80;99.90;;;;;;4954600;28;20270;-41
2021/05/09 01:25:30;;;;;;;2.58;2.28;;;11.80;99.90;;;;;;4969996;28;20206;-42
2021/05/09 01:27:58;;;;;;;2.13;1.92;;;11.70;99.90;;;;;;4973647;28;20664;-40
2021/05/09 01:30:26;;;;;;;2.63;2.30;;;11.70;99.90;;;;;;4972898;28;20272;-40
2021/05/09 01:32:53;;;;;;;2.25;2.05;;;11.70;99.90;;;;;;4973523;28;20633;-42
2021/05/09 01:35:20;;;;;;;3.20;1.90;;;11.70;99.90;;;;;;4973013;28;20194;-40
2021/05/09 01:37:48;;;;;;;2.28;2.10;;;11.70;99.90;;;;;;4972698;28;20194;-41
2021/05/09 01:40:16;;;;;;;1.98;1.85;;;11.60;99.90;;;;;;4972936;28;20201;-42
2021/05/09 01:42:43;;;;;;;2.42;1.70;;;11.60;99.90;;;;;;4971289;28;20248;-41
2021/05/09 01:45:12;;;;;;;1.55;1.45;;;11.50;99.90;;;;;;4972923;28;20337;-44
2021/05/09 01:47:39;;;;;;;2.33;1.80;;;11.40;99.90;;;;;;4972488;28;20701;-40
2021/05/09 01:50:09;;;;;;;3.05;1.80;;;11.40;99.90;;;;;;4971906;28;20237;-40
2021/05/09 01:52:36;;;;;;;2.45;1.67;;;11.40;99.90;;;;;;4972457;28;20205;-40
2021/05/09 01:55:07;;;;;;;2.53;1.80;;;11.30;99.90;;;;;;4971018;28;20206;-43
2021/05/09 01:57:35;;;;;;;1.77;1.40;;;11.20;99.90;;;;;;4954799;28;20578;-40
2021/05/09 02:00:07;;;;;;;2.22;2.03;;;11.20;99.90;;;;;;4970727;28;20280;-40
2021/05/09 02:02:46;;;;;;;3.55;1.90;;;11.30;99.90;;;;;;4966134;28;20278;-40
2021/05/09 02:05:19;;;;;;;5.22;1.52;;;11.30;99.90;;;;;;4971048;28;20198;-43
2021/05/09 02:07:46;;;;;;;2.63;2.03;;;11.70;99.90;;;;;;4970574;28;20194;-40
2021/05/09 02:10:14;;;;;;;1.60;1.50;;;12.20;99.90;;;;;;4971811;28;20222;-40
2021/05/09 02:12:43;;;;;;;1.92;1.83;;;12.40;99.90;;;;;;4970702;28;20202;-43
2021/05/09 02:15:29;;;;;;;2.40;1.60;;;12.60;99.90;;;;;;4970727;28;20256;-41
2021/05/09 02:17:56;;;;;;;1.88;1.70;;;12.70;99.90;;;;;;4971809;28;20257;-41
2021/05/09 02:20:26;;;;;;;3.03;2.30;;;12.70;99.90;;;;;;4970324;28;20218;-41
2021/05/09 02:22:54;;;;;;;2.40;1.90;;;12.80;99.90;;;;;;4970331;28;20198;-41
2021/05/09 02:25:22;;;;;;;2.35;2.03;;;12.80;99.90;;;;;;4971801;28;20234;-40
2021/05/09 02:27:53;;;;;;;1.95;1.80;;;12.80;99.90;;;;;;4970364;28;20703;-41
2021/05/09 02:30:22;;;;;;;1.65;1.55;;;12.80;99.90;;;;;;4969833;28;20257;-41
2021/05/09 02:32:50;;;;;;;3.00;2.13;;;12.80;99.90;;;;;;4970403;28;20764;-40
2021/05/09 02:35:17;;;;;;;3.55;2.03;;;12.90;99.90;;;;;;4972063;28;20742;-41
2021/05/09 02:37:44;;;;;;;2.33;2.05;;;12.80;99.90;;;;;;4971907;28;20424;-40
2021/05/09 02:40:12;;;;;;;2.38;2.17;;;12.80;99.90;;;;;;4953812;28;20194;-41
2021/05/09 02:42:43;;;;;;;2.53;1.80;;;12.90;99.90;;;;;;4971190;28;20202;-41
2021/05/09 02:45:11;;;;;;;2.85;1.80;;;12.90;99.90;;;;;;4971733;28;20206;-41
2021/05/09 02:47:38;;;;;;;1.38;1.35;;;12.80;99.90;;;;;;4971601;28;20549;-41
2021/05/09 02:50:11;;;;;;;2.03;1.85;;;12.70;99.90;;;;;;4967979;28;20715;-41
2021/05/09 02:52:40;;;;;;;2.38;2.15;;;12.60;99.90;;;;;;4969826;28;20261;-41
2021/05/09 02:55:07;;;;;;;2.13;2.03;;;12.50;99.90;;;;;;4971492;28;20647;-41
2021/05/09 02:57:34;;;;;;;1.80;1.70;;;12.40;99.90;;;;;;4971430;28;20218;-41
2021/05/09 03:00:03;;;;;;;2.17;1.95;;;12.20;99.90;;;;;;4970798;28;20202;-43
2021/05/09 03:02:32;;;;;;;2.15;2.05;;;12.10;99.90;;;;;;4970664;28;20213;-41
2021/05/09 03:04:59;;;;;;;1.77;1.67;;;12.00;99.90;;;;;;4969862;28;20281;-41
2021/05/09 03:07:27;;;;;;;2.92;2.63;;;11.90;99.90;;;;;;4971181;28;20786;-41
2021/05/09 03:09:53;;;;;;;3.25;2.03;;;11.90;99.90;;;;;;4970783;28;20210;-41
2021/05/09 03:12:21;;;;;;;3.80;1.60;;;11.80;99.90;;;;;;4969887;28;20214;-40
2021/05/09 03:14:47;;;;;;;2.53;2.33;;;11.80;99.90;;;;;;4970905;28;20198;-44
2021/05/09 03:17:15;;;;;;;2.35;2.15;;;11.60;99.90;;;;;;4971281;28;20716;-41
2021/05/09 03:19:42;;;;;;;2.70;2.28;;;11.60;99.90;;;;;;4970117;28;20201;-42
2021/05/09 03:22:09;;;;;;;2.47;2.28;;;11.70;99.90;;;;;;4971279;28;20193;-41
2021/05/09 03:24:35;;;;;;;2.35;2.25;;;11.80;99.90;;;;;;4971058;28;20279;-42
2021/05/09 03:27:18;;;;;;;2.33;2.13;;;11.90;99.90;;;;;;4970423;28;20739;-41
2021/05/09 03:29:45;;;;;;;2.92;2.40;;;12.00;99.90;;;;;;4969877;28;20305;-40
2021/05/09 03:32:12;;;;;;;2.25;2.05;;;12.10;99.90;;;;;;4970768;28;20583;-41
2021/05/09 03:34:39;;;;;;;2.25;2.10;;;12.20;99.90;;;;;;4970056;28;20190;-41
2021/05/09 03:37:06;;;;;;;2.38;2.10;;;12.30;99.90;;;;;;4970803;28;20210;-41
2021/05/09 03:39:33;;;;;;;4.22;2.03;;;12.40;99.90;;;;;;4970536;28;20248;-40
2021/05/09 03:42:00;;;;;;;1.90;1.77;;;12.40;99.90;;;;;;4971050;28;20217;-41
2021/05/09 03:44:26;;;;;;;1.92;1.83;;;12.40;99.90;;;;;;4970749;28;20692;-42
2021/05/09 03:46:53;;;;;;;2.97;1.80;;;12.20;99.90;;;;;;4970732;28;20238;-41
2021/05/09 03:49:20;;;;;;;3.13;2.50;;;12.10;99.90;;;;;;4969288;28;20308;-40
2021/05/09 03:51:48;;;;;;;3.17;2.03;;;12.00;99.90;;;;;;4970291;28;20194;-41
2021/05/09 03:54:14;;;;;;;3.40;2.42;;;11.80;99.90;;;;;;4970733;28;20218;-42
2021/05/09 03:56:41;;;;;;;2.38;2.03;;;11.70;99.90;;;;;;4970857;28;20353;-43
2021/05/09 03:59:07;;;;;;;4.10;2.58;;;11.70;99.90;;;;;;4953218;28;20199;-41
2021/05/09 04:01:35;;;;;;;2.38;2.15;;;11.60;99.90;;;;;;4970396;28;20293;-40
2021/05/09 04:04:02;;;;;;;2.38;1.95;;;11.60;99.90;;;;;;4970193;28;20702;-40
2021/05/09 04:06:29;;;;;;;2.97;2.72;;;11.60;99.90;;;;;;4971195;28;20300;-41
2021/05/09 04:08:56;;;;;;;2.35;2.20;;;11.60;99.90;;;;;;4970078;28;20552;-43
2021/05/09 04:11:23;;;;;;;3.70;2.40;;;11.70;99.90;;;;;;4970485;28;20222;-41
2021/05/09 04:13:50;;;;;;;5.25;2.38;;;11.80;99.90;;;;;;4970566;28;20282;-41
2021/05/09 04:16:18;;;;;;;3.45;2.30;;;11.80;99.90;;;;;;4974200;28;20218;-41
2021/05/09 04:18:45;;;;;;;3.13;2.58;;;11.80;99.90;;;;;;4974261;28;20256;-41
2021/05/09 04:21:12;;;;;;;3.22;2.42;;;11.80;99.90;;;;;;4973131;28;20548;-41
2021/05/09 04:23:38;;;;;;;4.35;2.17;;;11.90;99.90;;;;;;4973988;28;20194;-40
2021/05/09 04:26:06;;;;;;;2.00;1.90;;;11.90;99.90;;;;;;4975211;28;20225;-43
2021/05/09 04:28:32;;;;;;;2.00;1.88;;;11.90;99.90;;;;;;4978259;28;20206;-41
2021/05/09 04:30:59;;;;;;;2.63;1.85;;;11.90;99.90;;;;;;4977400;28;20186;-43
2021/05/09 04:33:27;;;;;;;2.90;2.35;;;11.90;99.90;;;;;;4979047;28;20245;-41
2021/05/09 04:35:54;;;;;;;4.43;1.90;;;11.90;99.90;;;;;;4977498;28;20592;-41
2021/05/09 04:38:21;;;;;;;2.20;1.90;;;11.90;99.90;;;;;;4976614;28;20278;-40
2021/05/09 04:40:49;;;;;;;2.78;1.80;;;12.00;99.90;;;;;;4975068;28;20201;-41
2021/05/09 04:43:18;;;;;;;1.67;1.58;;;12.00;99.90;;;;;;4974036;28;20236;-41
2021/05/09 04:45:46;;;;;;;2.42;2.17;;;12.00;99.90;;;;;;4989629;23;20222;-41
2021/05/09 04:48:13;;;;;;;3.60;2.10;;;12.00;99.90;;;;;;4975342;28;20685;-41
2021/05/09 04:50:40;;;;;;;1.73;1.63;;;12.10;99.90;;;;;;4989678;28;20309;-40
2021/05/09 04:53:22;;;;;;;1.77;1.67;;;12.10;99.90;;;;;;4987092;28;20201;-38
2021/05/09 04:55:49;;;;;;;2.38;1.80;;;12.20;99.90;;;;;;4983098;28;20224;-39
2021/05/09 04:58:16;;;;;;;8.35;2.15;;;12.30;99.90;;;;;;4990718;28;20243;-39
2021/05/09 05:00:44;;;;;;;6.15;1.98;;;12.40;99.90;;;;;;4981512;28;20190;-40
2021/05/09 05:03:10;;;;;;;2.58;1.60;;;12.40;99.90;;;;;;4980872;28;20186;-39
2021/05/09 05:05:38;;;;;;;1.70;1.60;;;12.50;99.90;;;;;;4973671;28;20225;-39
2021/05/09 05:08:05;;;;;;;2.28;2.03;;;12.70;99.90;;;;;;4973101;28;20281;-39
2021/05/09 05:10:32;;;;;;;2.45;2.22;;;12.80;99.90;;;;;;4973777;28;20308;-39
2021/05/09 05:12:58;;;;;;;2.03;1.85;;;13.00;99.90;;;;;;4981050;28;20712;-40
2021/05/09 05:15:26;;;;;;;3.55;1.92;;;13.10;99.90;;;;;;4974303;28;20230;-39
2021/05/09 05:17:53;;;;;;;2.30;1.67;;;13.20;99.90;;;;;;4989088;28;20233;-40
2021/05/09 05:20:20;;;;;;;2.75;1.98;;;13.30;99.90;;;;;;4985336;28;20202;-40
2021/05/09 05:22:47;;;;;;;1.42;1.30;;;13.30;99.90;;;;;;4984219;28;20691;-40
2021/05/09 05:25:14;;;;;;;1.75;1.65;;;13.30;99.90;;;;;;4983094;28;20205;-39
2021/05/09 05:27:41;;;;;;;1.67;1.50;;;13.40;99.90;;;;;;4981835;28;20296;-39
2021/05/09 05:30:09;;;;;;;1.88;1.77;;;13.40;99.90;;;;;;4988569;28;20621;-39
2021/05/09 05:32:40;;;;;;;2.28;2.08;;;13.40;99.90;;;;;;4972773;28;20210;-40
2021/05/09 05:35:07;;;;;;;3.92;1.63;;;13.50;99.90;;;;;;4980475;28;20282;-39
2021/05/09 05:37:34;;;;;;;1.85;1.75;;;13.50;99.90;;;;;;4990316;28;20271;-39
2021/05/09 05:40:00;;;;;;;7.50;2.38;;;13.50;99.90;;;;;;4985483;28;20229;-39
2021/05/09 05:42:27;;;;;;;3.60;1.92;;;13.70;99.90;;;;;;4981634;28;20594;-39
2021/05/09 05:44:54;;;;;;;1.98;1.63;;;13.90;99.90;;;;;;4976000;28;20635;-39
2021/05/09 05:47:21;;;;;;;2.03;1.70;;;13.90;99.90;;;;;;4980592;28;20272;-40
2021/05/09 05:49:48;;;;;;;3.85;1.70;;;14.00;99.90;;;;;;4977459;28;20205;-41
2021/05/09 05:52:15;;;;;;;3.33;1.50;;;14.20;99.90;;;;;;4987148;28;20232;-39
2021/05/09 05:54:42;;;;;;;1.77;1.67;;;14.20;99.90;;;;;;4981696;28;20194;-40
2021/05/09 05:57:08;;;;;;;1.88;1.70;;;14.30;99.90;;;;;;4993885;28;20283;-40
2021/05/09 05:59:35;;;;;;;3.08;2.42;;;14.40;99.90;;;;;;4980538;28;20281;-39
2021/05/09 06:02:02;;;;;;;2.83;1.73;;;14.40;99.90;;;;;;4974057;28;20221;-41
2021/05/09 06:04:29;;;;;;;2.00;1.80;;;14.60;99.90;;;;;;4974155;28;20213;-39
2021/05/09 06:06:56;;;;;;;2.30;1.75;;;14.60;99.90;;;;;;4991882;28;20213;-39
2021/05/09 06:09:23;;;;;;;1.77;1.67;;;14.70;99.90;;;;;;4989950;28;20275;-41
2021/05/09 06:11:49;;;;;;;2.30;1.38;;;14.70;99.90;;;;;;4982224;28;20217;-40
2021/05/09 06:14:16;;;;;;;2.00;1.65;;;14.80;99.90;;;;;;4982822;28;20577;-39
2021/05/09 06:16:42;;;;;;;2.17;1.70;;;15.00;99.90;;;;;;4989897;28;20304;-40
2021/05/09 06:19:09;;;;;;;1.90;1.70;;;15.00;99.90;;;;;;4985355;28;20202;-41
2021/05/09 06:21:36;;;;;;;1.80;1.70;;;15.20;99.90;;;;;;4978392;28;20193;-39
2021/05/09 06:24:05;;;;;;;2.28;2.08;;;15.20;99.90;;;;;;4976076;28;20202;-39
2021/05/09 06:26:31;;;;;;;2.13;1.52;;;15.20;99.90;;;;;;4982100;28;20706;-40
2021/05/09 06:28:58;;;;;;;1.88;1.77;;;15.30;99.90;;;;;;4971891;28;20217;-40
2021/05/09 06:31:25;;;;;;;1.95;1.52;;;15.40;99.90;;;;;;4985085;28;20708;-40
2021/05/09 06:33:51;;;;;;;1.75;1.65;;;15.40;99.90;;;;;;4977577;28;20194;-39
2021/05/09 06:36:18;;;;;;;1.67;1.50;;;15.50;99.90;;;;;;4989722;28;20333;-40
2021/05/09 06:38:44;;;;;;;1.48;1.38;;;15.30;99.90;;;;;;4971677;28;20203;-41
2021/05/09 06:41:12;;;;;;;2.33;2.13;;;15.50;99.90;;;;;;4972448;28;20671;-39
2021/05/09 06:43:39;;;;;;;3.95;2.08;;;15.50;99.90;;;;;;4980255;28;20645;-40
2021/05/09 06:46:06;;;;;;;3.17;1.92;;;15.60;99.90;;;;;;4971518;28;20778;-39
2021/05/09 06:48:33;;;;;;;2.45;1.25;;;15.70;99.90;;;;;;4974650;28;20204;-39
2021/05/09 06:51:00;;;;;;;2.75;1.80;;;15.90;99.90;;;;;;4972887;28;20292;-39
2021/05/09 06:53:26;;;;;;;1.63;1.52;;;15.80;99.90;;;;;;4981502;28;20224;-39
2021/05/09 06:55:55;;;;;;;1.25;1.25;;;15.90;99.90;;;;;;4971241;28;20754;-39
2021/05/09 06:58:23;;;;;;;4.03;1.85;;;16.00;99.90;;;;;;4972996;28;20209;-40
2021/05/09 07:00:50;;;;;;;1.85;1.70;;;16.10;99.90;;;;;;4989598;28;20225;-40
2021/05/09 07:03:17;;;;;;;2.35;2.15;;;16.20;99.90;;;;;;4979478;28;20370;-39
2021/05/09 07:05:44;;;;;;;1.92;1.83;;;16.30;99.90;;;;;;4984200;28;20212;-39
2021/05/09 07:08:11;;;;;;;2.20;1.60;;;16.50;99.90;;;;;;4981655;28;20664;-40
2021/05/09 07:10:38;;;;;;;1.63;1.33;;;16.60;99.90;;;;;;4984978;28;20220;-40
2021/05/09 07:13:05;;;;;;;1.52;1.33;;;16.90;99.90;;;;;;4982595;28;20213;-40
2021/05/09 07:15:34;;;;;;;2.22;1.65;;;17.00;99.90;;;;;;4981781;28;20809;-39
2021/05/09 07:18:06;;;;;;;1.98;1.20;;;17.30;99.90;;;;;;4983379;28;20469;-39
2021/05/09 07:20:36;;;;;;;2.13;1.73;;;17.40;99.90;;;;;;4981457;28;20277;-40
2021/05/09 07:23:04;;;;;;;1.50;1.40;;;17.70;99.90;;;;;;4971236;28;20209;-39
2021/05/09 07:25:31;;;;;;;2.53;1.40;;;17.80;99.90;;;;;;4970945;28;20483;-39
2021/05/09 07:28:04;;;;;;;1.75;1.20;;;17.80;99.90;;;;;;4974348;28;20198;-41
2021/05/09 07:30:50;;;;;;;1.80;1.70;;;17.80;99.90;;;;;;4971775;28;20325;-39
2021/05/09 07:33:17;;;;;;;1.50;1.40;;;17.90;99.90;;;;;;4973974;28;20226;-40
2021/05/09 07:35:44;;;;;;;1.95;1.45;;;17.80;99.90;;;;;;4975410;28;20203;-39
2021/05/09 07:38:13;;;;;;;2.25;1.40;;;17.70;99.90;;;;;;4974490;28;20668;-40
2021/05/09 07:40:40;;;;;;;1.88;1.63;;;17.90;99.90;;;;;;4982479;28;20648;-40
2021/05/09 07:43:07;;;;;;;1.23;1.13;;;18.20;99.90;;;;;;4982532;28;20193;-40
2021/05/09 07:45:35;;;;;;;1.73;1.63;;;18.40;99.90;;;;;;4972595;28;20533;-41
2021/05/09 07:48:02;;;;;;;3.45;1.95;;;18.40;99.90;;;;;;4983509;28;20236;-40
2021/05/09 07:50:29;;;;;;;2.50;1.50;;;18.40;99.90;;;;;;4983263;28;20216;-40
2021/05/09 07:52:58;;;;;;;1.88;1.38;;;18.70;99.90;;;;;;4989053;28;20253;-39
2021/05/09 07:55:26;;;;;;;1.33;1.23;;;18.90;99.90;;;;;;4974835;28;20668;-40
2021/05/09 07:57:53;;;;;;;1.30;1.20;;;18.90;99.90;;;;;;4985019;28;20210;-40
2021/05/09 08:00:21;;;;;;;1.23;1.13;;;18.90;99.90;;;;;;4991071;28;20549;-40
2021/05/09 08:02:49;;;;;;;1.50;1.40;;;19.10;99.90;;;;;;4983136;28;20236;-40
2021/05/09 08:05:18;;;;;;;1.95;1.58;;;19.20;99.90;;;;;;4980457;28;20533;-40
2021/05/09 08:07:48;;;;;;;1.67;1.50;;;19.30;99.90;;;;;;4985237;28;20214;-40
2021/05/09 08:10:15;;;;;;;1.95;1.60;;;19.50;99.90;;;;;;4993625;28;20248;-40
2021/05/09 08:12:42;;;;;;;2.60;1.17;;;19.50;99.90;;;;;;4988463;28;20201;-40
2021/05/09 08:15:10;;;;;;;1.85;1.20;;;19.60;99.90;;;;;;4981726;28;20220;-40
2021/05/09 08:17:36;;;;;;;3.00;1.80;;;19.80;99.90;;;;;;4984283;28;20270;-40
2021/05/09 08:20:04;;;;;;;1.33;1.23;;;19.80;99.90;;;;;;4981656;28;20201;-41
2021/05/09 08:22:32;;;;;;;1.55;1.23;;;19.90;99.90;;;;;;4980410;28;20206;-40
2021/05/09 08:24:59;;;;;;;3.42;1.75;;;20.00;99.90;;;;;;4983347;28;20258;-39
2021/05/09 08:27:29;;;;;;;1.25;1.15;;;20.20;99.90;;;;;;4981397;28;20242;-40
2021/05/09 08:29:56;;;;;;;1.63;1.23;;;20.20;99.90;;;;;;4970659;28;20707;-40
2021/05/09 08:32:23;;;;;;;2.75;1.13;;;20.30;99.90;;;;;;4980708;28;20220;-40
2021/05/09 08:34:50;;;;;;;2.05;1.65;;;20.30;99.90;;;;;;4993426;28;20213;-41
2021/05/09 08:37:16;;;;;;;3.42;1.30;;;20.70;99.90;;;;;;4993633;28;20715;-40
2021/05/09 08:39:44;;;;;;;1.80;1.42;;;20.70;99.90;;;;;;4992818;28;20190;-40
2021/05/09 08:42:14;;;;;;;1.60;1.40;;;20.70;99.90;;;;;;4989491;28;20201;-40
2021/05/09 08:44:41;;;;;;;1.73;1.27;;;21.00;99.90;;;;;;4973599;28;20208;-40
2021/05/09 08:47:09;;;;;;;1.85;1.00;;;21.10;99.90;;;;;;4971443;28;20661;-39
2021/05/09 08:49:40;;;;;;;3.03;1.25;;;20.90;99.90;;;;;;4973163;28;20222;-40
2021/05/09 08:52:08;;;;;;;1.25;1.15;;;21.00;99.90;;;;;;4974117;28;20210;-39
2021/05/09 08:54:35;;;;;;;2.08;1.65;;;21.10;99.90;;;;;;4974337;28;20202;-40
2021/05/09 08:57:04;;;;;;;2.38;1.00;;;21.30;99.90;;;;;;4973960;28;20301;-40
2021/05/09 08:59:31;;;;;;;1.77;1.10;;;21.30;99.90;;;;;;4973263;28;20194;-40
2021/05/09 09:01:58;;;;;;;2.67;1.00;;;21.30;99.90;;;;;;4972642;28;20288;-40
2021/05/09 09:04:25;;;;;;;1.45;1.00;;;21.40;99.90;;;;;;4973444;28;20668;-40
2021/05/09 09:06:54;;;;;;;0.95;0.95;;;21.70;99.90;;;;;;4973497;28;20667;-40
2021/05/09 09:09:21;;;;;;;2.55;1.10;;;22.00;99.90;;;;;;4973231;28;20242;-40
2021/05/09 09:11:53;;;;;;;2.35;1.33;;;22.10;99.90;;;;;;4972100;28;20194;-41
2021/05/09 09:14:25;;;;;;;1.98;1.30;;;22.20;99.90;;;;;;4972280;28;20264;-40
2021/05/09 09:17:09;;;;;;;2.38;1.75;;;22.20;99.90;;;;;;4957625;28;20352;-40
2021/05/09 09:19:35;;;;;;;0.95;0.88;;;22.50;99.90;;;;;;4970852;28;20717;-40
2021/05/09 09:22:02;;;;;;;1.30;1.20;;;22.80;99.90;;;;;;4972931;28;20190;-40
2021/05/09 09:24:29;;;;;;;2.95;1.40;;;22.80;99.90;;;;;;4972384;28;20194;-40
2021/05/09 09:26:55;;;;;;;1.00;1.00;;;22.80;99.90;;;;;;4970626;28;20720;-40
2021/05/09 09:29:25;;;;;;;3.28;1.30;;;22.80;99.90;;;;;;4971227;28;20244;-40
2021/05/09 09:31:54;;;;;;;4.07;3.28;;;23.10;99.90;;;;;;4970376;28;20187;-39
2021/05/09 09:34:22;;;;;;;4.07;1.63;;;23.40;99.90;;;;;;4972470;28;20694;-40
2021/05/09 09:36:49;;;;;;;1.48;1.38;;;23.60;99.90;;;;;;4971042;28;20430;-40
2021/05/09 09:39:15;;;;;;;1.95;1.83;;;23.70;99.90;;;;;;4972305;28;20278;-40
2021/05/09 09:41:49;;;;;;;3.10;1.25;;;23.80;99.90;;;;;;4970285;28;20194;-40
2021/05/09 09:44:17;;;;;;;1.50;1.20;;;23.90;99.90;;;;;;4970696;28;20202;-40
2021/05/09 09:46:51;;;;;;;1.13;1.02;;;23.90;99.90;;;;;;4972080;28;20300;-42
2021/05/09 09:49:23;;;;;;;2.75;1.00;;;24.20;99.90;;;;;;4970018;28;20249;-41
2021/05/09 09:51:55;;;;;;;6.22;1.45;;;24.30;99.90;;;;;;4969416;28;20248;-40
2021/05/09 09:54:40;;;;;;;2.63;1.33;;;24.50;99.90;;;;;;4972529;28;20690;-44
2021/05/09 09:57:10;;;;;;;2.90;1.20;;;24.40;99.90;;;;;;4972581;28;20304;-40
2021/05/09 09:59:37;;;;;;;1.23;1.13;;;24.30;99.90;;;;;;4972205;28;20205;-40
2021/05/09 10:02:07;;;;;;;6.70;6.07;;;24.40;99.90;;;;;;4972380;28;20206;-41
2021/05/09 10:04:35;;;;;;;2.95;2.67;;;24.50;99.90;;;;;;4972352;28;20228;-40
2021/05/09 10:07:07;;;;;;;1.50;1.40;;;24.80;99.90;;;;;;4972161;28;20222;-41
2021/05/09 10:09:34;;;;;;;2.25;1.08;;;25.00;99.90;;;;;;4987087;28;20214;-40
2021/05/09 10:12:01;;;;;;;2.58;2.38;;;24.50;99.90;;;;;;4973065;28;20221;-40
2021/05/09 10:14:29;;;;;;;1.80;1.20;;;24.50;99.90;;;;;;4972602;28;20209;-40
2021/05/09 10:16:56;;;;;;;1.58;1.33;;;24.70;99.90;;;;;;4971882;28;20638;-39
2021/05/09 10:19:26;;;;;;;1.40;1.17;;;24.90;99.90;;;;;;4989565;23;20245;-79
2021/05/09 10:21:52;;;;;;;1.35;0.77;;;24.90;99.90;;;;;;4960647;28;20234;-78
2021/05/09 10:24:21;;;;;;;2.58;1.55;;;24.80;99.90;;;;;;4957423;29;20230;-78
2021/05/09 10:26:54;;;;;;;3.80;1.20;;;24.50;99.90;;;;;;4958755;29;20199;-81
2021/05/09 10:29:58;;;;;;;6.05;1.80;;;24.40;99.90;;;;;;4959612;29;20211;-78
2021/05/09 10:32:48;;;;;;;1.67;1.25;;;24.70;99.90;;;;;;4962552;28;20220;-75
2021/05/09 10:35:17;;;;;;;2.60;1.35;;;24.90;99.90;;;;;;4977488;28;20633;-80
2021/05/09 10:38:06;;;;;;;1.45;1.35;;;25.20;99.90;;;;;;4977912;28;20199;-79
2021/05/09 10:40:36;;;;;;;2.70;1.42;;;25.40;99.90;;;;;;4981407;28;20198;-81
2021/05/09 10:43:41;;;;;;;2.30;1.25;;;25.70;99.90;;;;;;4969067;28;20261;-81
2021/05/09 10:46:10;;;;;;;2.08;1.42;;;26.00;99.90;;;;;;4958900;29;20242;-80
2021/05/09 10:49:09;;;;;;;1.92;1.13;;;26.00;99.90;;;;;;4957474;28;20441;-79
2021/05/09 10:51:38;;;;;;;2.40;1.40;;;26.50;99.90;;;;;;4979825;28;20214;-79
2021/05/09 10:54:20;;;;;;;1.67;1.02;;;26.80;99.90;;;;;;4981389;28;20228;-80
2021/05/09 10:56:47;;;;;;;3.05;0.95;;;26.60;99.90;;;;;;4977490;28;20240;-80
2021/05/09 10:59:14;;;;;;;2.55;2.10;;;26.20;99.90;;;;;;4978560;28;20201;-80
2021/05/09 11:01:41;;;;;;;2.10;1.90;;;26.40;99.90;;;;;;4975653;28;20569;-79
2021/05/09 11:04:09;;;;;;;1.90;1.40;;;26.60;99.90;;;;;;4978609;28;20198;-79
2021/05/09 11:06:48;;;;;;;1.98;1.17;;;26.90;99.90;;;;;;4978067;28;20711;-80
2021/05/09 11:09:17;;;;;;;2.85;1.15;;;27.10;99.90;;;;;;4977379;28;20289;-79
2021/05/09 11:12:04;;;;;;;2.00;1.23;;;26.70;99.90;;;;;;4978957;28;20336;-80
2021/05/09 11:14:33;;;;;;;2.40;1.30;;;26.30;99.90;;;;;;4976802;28;20580;-78
2021/05/09 11:17:06;;;;;;;1.80;1.50;;;26.00;99.90;;;;;;4966650;28;20625;-78
2021/05/09 11:19:43;;;;;;;2.80;1.42;;;25.80;99.90;;;;;;4958468;28;20622;-79
2021/05/09 11:22:11;;;;;;;2.05;1.02;;;26.20;99.90;;;;;;4958223;28;20799;-85
2021/05/09 11:24:40;;;;;;;1.27;1.17;;;26.20;99.90;;;;;;4960764;28;20225;-79
2021/05/09 11:27:10;;;;;;;1.30;1.20;;;26.20;99.90;;;;;;4963325;28;20202;-79
2021/05/09 11:29:40;;;;;;;2.35;2.15;;;26.50;99.90;;;;;;4959967;29;20206;-80
2021/05/09 11:32:15;;;;;;;2.17;1.55;;;26.70;99.90;;;;;;4962914;28;20237;-79
2021/05/09 11:34:49;;;;;;;1.10;1.00;;;26.70;99.90;;;;;;4964366;28;20206;-82
2021/05/09 11:37:18;;;;;;;1.50;1.30;;;26.80;99.90;;;;;;4964229;28;20193;-80
2021/05/09 11:39:45;;;;;;;3.22;1.73;;;26.90;99.90;;;;;;4961749;28;20191;-78
2021/05/09 11:42:14;;;;;;;2.95;1.88;;;26.80;99.90;;;;;;4965427;28;20218;-84
2021/05/09 11:44:43;;;;;;;2.83;1.70;;;27.00;99.90;;;;;;4965162;28;20591;-80
2021/05/09 11:47:12;;;;;;;2.25;1.40;;;27.00;99.90;;;;;;4966074;28;20205;-80
2021/05/09 11:49:39;;;;;;;3.60;2.10;;;26.90;99.90;;;;;;4961904;29;20230;-78
2021/05/09 11:52:09;;;;;;;5.40;1.33;;;26.80;99.90;;;;;;4964794;28;20226;-80
2021/05/09 11:54:38;;;;;;;2.17;1.33;;;27.10;99.90;;;;;;4962239;29;20233;-79
2021/05/09 11:57:09;;;;;;;2.95;1.10;;;27.00;99.90;;;;;;4946733;29;20233;-79
2021/05/09 11:59:38;;;;;;;2.20;1.40;;;27.10;99.90;;;;;;4964751;28;20202;-79
2021/05/09 12:02:20;;;;;;;2.58;1.08;;;27.80;99.90;;;;;;4964791;28;20271;-80
2021/05/09 12:04:53;;;;;;;2.22;1.58;;;27.80;99.90;;;;;;4962926;29;20207;-79
2021/05/09 12:07:22;;;;;;;4.63;1.83;;;28.20;99.90;;;;;;4961661;29;20195;-79
2021/05/09 12:09:52;;;;;;;2.53;1.75;;;28.10;99.90;;;;;;4963473;28;21006;-80
2021/05/09 12:12:20;;;;;;;1.70;1.60;;;28.30;99.90;;;;;;4963461;28;20318;-79
2021/05/09 12:14:49;;;;;;;1.42;1.25;;;28.20;99.90;;;;;;4973039;28;20203;-80
2021/05/09 12:17:21;;;;;;;1.55;1.40;;;27.90;99.90;;;;;;4972585;28;20370;-80
2021/05/09 12:19:47;;;;;;;2.83;1.52;;;27.60;99.90;;;;;;4974475;28;20203;-80
2021/05/09 12:22:14;;;;;;;2.10;1.40;;;27.70;99.90;;;;;;4953494;29;20226;-80
2021/05/09 12:24:49;;;;;;;1.90;1.38;;;27.70;99.90;;;;;;4971092;29;20246;-80
2021/05/09 12:27:17;;;;;;;2.75;1.42;;;27.80;99.90;;;;;;4972353;28;20261;-80
2021/05/09 12:29:45;;;;;;;1.83;1.20;;;27.80;99.90;;;;;;4975883;28;20226;-81
2021/05/09 12:32:24;;;;;;;1.50;1.40;;;27.90;99.90;;;;;;4973507;28;20226;-79
2021/05/09 12:35:03;;;;;;;1.08;1.00;;;27.80;99.90;;;;;;4970310;28;20210;-81
2021/05/09 12:37:30;;;;;;;3.15;1.95;;;28.10;99.90;;;;;;4966654;28;20283;-81
2021/05/09 12:40:18;;;;;;;1.92;1.40;;;28.30;99.90;;;;;;4969497;28;20210;-82
2021/05/09 12:42:53;;;;;;;4.70;1.27;;;29.00;99.90;;;;;;4984005;28;20222;-82
2021/05/09 12:45:28;;;;;;;1.63;1.30;;;29.50;99.90;;;;;;4984096;28;20218;-83
2021/05/09 12:48:07;;;;;;;3.67;1.77;;;29.50;99.90;;;;;;4986171;28;20206;-81
2021/05/09 12:51:07;;;;;;;1.98;1.23;;;29.40;99.90;;;;;;4982803;28;20304;-81
2021/05/09 12:53:42;;;;;;;2.55;0.80;;;29.30;99.90;;;;;;4981311;28;20218;-82
2021/05/09 12:56:17;;;;;;;3.15;1.63;;;29.70;99.90;;;;;;4983835;28;20202;-81
2021/05/09 12:59:06;;;;;;;2.03;1.35;;;29.90;99.90;;;;;;4982484;28;20204;-80